sensor_id;sensor_type;location;lat;lon;timestamp;P1;durP1;ratioP1;P2;durP2;ratioP2
19436;SDS011;9854;50.968;4.168;2023-04-07T00:01:24;19.30;;;13.33;;
19436;SDS011;9854;50.968;4.168;2023-04-07T00:03:50;22.63;;;13.00;;
19436;SDS011;9854;50.968;4.168;2023-04-07T00:06:16;18.00;;;12.10;;
19436;SDS011;9854;50.968;4.168;2023-04-07T00:08:41;17.87;;;12.07;;
19436;SDS011;9854;50.968;4.168;2023-04-07T00:11:07;20.43;;;13.20;;
19436;SDS011;9854;50.968;4.168;2023-04-07T00:13:33;18.87;;;12.00;;
19436;SDS011;9854;50.968;4.168;2023-04-07T00:15:58;16.10;;;13.00;;
19436;SDS011;9854;50.968;4.168;2023-04-07T00:18:24;18.23;;;13.37;;
19436;SDS011;9854;50.968;4.168;2023-04-07T00:20:50;17.53;;;13.03;;
19436;SDS011;9854;50.968;4.168;2023-04-07T00:23:16;21.73;;;12.90;;
19436;SDS011;9854;50.968;4.168;2023-04-07T00:25:41;19.73;;;12.47;;
19436;SDS011;9854;50.968;4.168;2023-04-07T00:28:07;17.43;;;12.87;;
19436;SDS011;9854;50.968;4.168;2023-04-07T00:30:33;19.70;;;13.83;;
19436;SDS011;9854;50.968;4.168;2023-04-07T00:32:58;20.70;;;13.13;;
19436;SDS011;9854;50.968;4.168;2023-04-07T00:35:24;17.23;;;12.73;;
19436;SDS011;9854;50.968;4.168;2023-04-07T00:37:49;29.60;;;14.83;;
19436;SDS011;9854;50.968;4.168;2023-04-07T00:40:16;24.70;;;14.60;;
19436;SDS011;9854;50.968;4.168;2023-04-07T00:42:41;21.23;;;14.20;;
19436;SDS011;9854;50.968;4.168;2023-04-07T00:45:07;27.53;;;14.93;;
19436;SDS011;9854;50.968;4.168;2023-04-07T00:47:34;29.27;;;15.80;;
19436;SDS011;9854;50.968;4.168;2023-04-07T00:50:02;20.37;;;14.40;;
19436;SDS011;9854;50.968;4.168;2023-04-07T00:52:28;29.57;;;15.93;;
19436;SDS011;9854;50.968;4.168;2023-04-07T00:54:56;34.70;;;16.97;;
19436;SDS011;9854;50.968;4.168;2023-04-07T00:57:23;29.77;;;16.40;;
19436;SDS011;9854;50.968;4.168;2023-04-07T00:59:49;31.10;;;16.83;;
19436;SDS011;9854;50.968;4.168;2023-04-07T01:02:28;31.93;;;17.53;;
19436;SDS011;9854;50.968;4.168;2023-04-07T01:10:18;39.30;;;18.67;;
19436;SDS011;9854;50.968;4.168;2023-04-07T01:13:00;34.63;;;19.13;;
19436;SDS011;9854;50.968;4.168;2023-04-07T01:15:36;32.63;;;17.97;;
19436;SDS011;9854;50.968;4.168;2023-04-07T01:18:09;39.10;;;18.90;;
19436;SDS011;9854;50.968;4.168;2023-04-07T01:20:39;39.60;;;19.03;;
19436;SDS011;9854;50.968;4.168;2023-04-07T01:23:07;33.97;;;17.80;;
19436;SDS011;9854;50.968;4.168;2023-04-07T01:28:48;32.73;;;16.50;;
19436;SDS011;9854;50.968;4.168;2023-04-07T01:31:39;36.13;;;17.13;;
19436;SDS011;9854;50.968;4.168;2023-04-07T01:34:05;32.00;;;15.53;;
19436;SDS011;9854;50.968;4.168;2023-04-07T01:36:35;31.47;;;14.63;;
19436;SDS011;9854;50.968;4.168;2023-04-07T01:39:00;27.40;;;14.83;;
19436;SDS011;9854;50.968;4.168;2023-04-07T01:41:26;27.27;;;14.40;;
19436;SDS011;9854;50.968;4.168;2023-04-07T01:43:54;27.27;;;13.27;;
19436;SDS011;9854;50.968;4.168;2023-04-07T01:46:21;22.20;;;12.60;;
19436;SDS011;9854;50.968;4.168;2023-04-07T01:48:47;18.97;;;12.00;;
19436;SDS011;9854;50.968;4.168;2023-04-07T01:51:13;18.27;;;9.83;;
19436;SDS011;9854;50.968;4.168;2023-04-07T01:53:45;13.60;;;8.93;;
19436;SDS011;9854;50.968;4.168;2023-04-07T01:56:12;20.57;;;9.20;;
19436;SDS011;9854;50.968;4.168;2023-04-07T01:58:38;17.00;;;8.70;;
19436;SDS011;9854;50.968;4.168;2023-04-07T02:01:04;13.27;;;8.60;;
19436;SDS011;9854;50.968;4.168;2023-04-07T02:03:43;13.33;;;7.23;;
19436;SDS011;9854;50.968;4.168;2023-04-07T02:06:32;12.70;;;7.60;;
19436;SDS011;9854;50.968;4.168;2023-04-07T02:09:04;14.50;;;7.33;;
19436;SDS011;9854;50.968;4.168;2023-04-07T02:11:32;15.47;;;7.33;;
19436;SDS011;9854;50.968;4.168;2023-04-07T02:14:00;12.70;;;7.50;;
19436;SDS011;9854;50.968;4.168;2023-04-07T02:16:28;13.93;;;7.37;;
19436;SDS011;9854;50.968;4.168;2023-04-07T02:18:55;14.00;;;7.03;;
19436;SDS011;9854;50.968;4.168;2023-04-07T02:21:21;15.40;;;7.80;;
19436;SDS011;9854;50.968;4.168;2023-04-07T02:23:48;14.83;;;7.33;;
19436;SDS011;9854;50.968;4.168;2023-04-07T02:26:15;10.67;;;7.30;;
19436;SDS011;9854;50.968;4.168;2023-04-07T02:28:41;17.23;;;7.80;;
19436;SDS011;9854;50.968;4.168;2023-04-07T02:31:06;12.37;;;6.53;;
19436;SDS011;9854;50.968;4.168;2023-04-07T02:33:32;14.30;;;7.90;;
19436;SDS011;9854;50.968;4.168;2023-04-07T02:35:58;13.33;;;8.00;;
19436;SDS011;9854;50.968;4.168;2023-04-07T02:38:23;12.87;;;7.67;;
19436;SDS011;9854;50.968;4.168;2023-04-07T02:40:49;17.30;;;8.30;;
19436;SDS011;9854;50.968;4.168;2023-04-07T02:43:15;17.50;;;9.43;;
19436;SDS011;9854;50.968;4.168;2023-04-07T02:45:41;14.13;;;8.30;;
19436;SDS011;9854;50.968;4.168;2023-04-07T02:48:07;20.10;;;9.10;;
19436;SDS011;9854;50.968;4.168;2023-04-07T02:50:33;11.33;;;8.50;;
19436;SDS011;9854;50.968;4.168;2023-04-07T02:52:58;21.60;;;10.00;;
19436;SDS011;9854;50.968;4.168;2023-04-07T02:55:24;13.40;;;10.17;;
19436;SDS011;9854;50.968;4.168;2023-04-07T02:57:50;22.63;;;11.37;;
19436;SDS011;9854;50.968;4.168;2023-04-07T03:00:16;22.67;;;13.13;;
19436;SDS011;9854;50.968;4.168;2023-04-07T03:02:41;30.10;;;13.13;;
19436;SDS011;9854;50.968;4.168;2023-04-07T03:05:07;25.10;;;12.83;;
19436;SDS011;9854;50.968;4.168;2023-04-07T03:07:33;29.33;;;13.47;;
19436;SDS011;9854;50.968;4.168;2023-04-07T03:09:58;31.53;;;14.40;;
19436;SDS011;9854;50.968;4.168;2023-04-07T03:12:24;26.90;;;14.13;;
19436;SDS011;9854;50.968;4.168;2023-04-07T03:14:50;29.13;;;15.20;;
19436;SDS011;9854;50.968;4.168;2023-04-07T03:17:15;24.73;;;13.80;;
19436;SDS011;9854;50.968;4.168;2023-04-07T03:19:41;31.30;;;14.33;;
19436;SDS011;9854;50.968;4.168;2023-04-07T03:22:07;28.33;;;14.20;;
19436;SDS011;9854;50.968;4.168;2023-04-07T03:24:32;22.03;;;14.80;;
19436;SDS011;9854;50.968;4.168;2023-04-07T03:26:58;26.13;;;16.10;;
19436;SDS011;9854;50.968;4.168;2023-04-07T03:29:23;25.50;;;14.87;;
19436;SDS011;9854;50.968;4.168;2023-04-07T03:31:49;24.63;;;15.53;;
19436;SDS011;9854;50.968;4.168;2023-04-07T03:34:15;23.23;;;14.53;;
19436;SDS011;9854;50.968;4.168;2023-04-07T03:36:40;23.07;;;16.07;;
19436;SDS011;9854;50.968;4.168;2023-04-07T03:39:06;39.93;;;18.90;;
19436;SDS011;9854;50.968;4.168;2023-04-07T03:41:32;28.77;;;18.17;;
19436;SDS011;9854;50.968;4.168;2023-04-07T03:43:57;30.17;;;18.50;;
19436;SDS011;9854;50.968;4.168;2023-04-07T03:46:23;31.13;;;20.47;;
19436;SDS011;9854;50.968;4.168;2023-04-07T03:48:51;35.47;;;19.67;;
19436;SDS011;9854;50.968;4.168;2023-04-07T03:51:17;30.50;;;18.93;;
19436;SDS011;9854;50.968;4.168;2023-04-07T03:53:42;34.83;;;20.27;;
19436;SDS011;9854;50.968;4.168;2023-04-07T03:56:08;36.40;;;21.30;;
19436;SDS011;9854;50.968;4.168;2023-04-07T03:58:34;39.83;;;21.53;;
19436;SDS011;9854;50.968;4.168;2023-04-07T04:01:00;44.83;;;21.37;;
19436;SDS011;9854;50.968;4.168;2023-04-07T04:03:25;45.97;;;23.40;;
19436;SDS011;9854;50.968;4.168;2023-04-07T04:05:51;54.73;;;24.73;;
19436;SDS011;9854;50.968;4.168;2023-04-07T04:08:16;51.60;;;24.80;;
19436;SDS011;9854;50.968;4.168;2023-04-07T04:10:42;57.20;;;26.10;;
19436;SDS011;9854;50.968;4.168;2023-04-07T04:13:08;54.90;;;25.13;;
19436;SDS011;9854;50.968;4.168;2023-04-07T04:15:33;54.63;;;25.97;;
19436;SDS011;9854;50.968;4.168;2023-04-07T04:17:59;58.30;;;26.97;;
19436;SDS011;9854;50.968;4.168;2023-04-07T04:20:25;63.90;;;28.63;;
19436;SDS011;9854;50.968;4.168;2023-04-07T04:22:50;57.73;;;27.37;;
19436;SDS011;9854;50.968;4.168;2023-04-07T04:25:16;69.93;;;28.73;;
19436;SDS011;9854;50.968;4.168;2023-04-07T04:27:42;63.00;;;27.27;;
19436;SDS011;9854;50.968;4.168;2023-04-07T04:30:07;68.80;;;29.10;;
19436;SDS011;9854;50.968;4.168;2023-04-07T04:32:33;65.03;;;30.03;;
19436;SDS011;9854;50.968;4.168;2023-04-07T04:34:59;66.13;;;29.80;;
19436;SDS011;9854;50.968;4.168;2023-04-07T04:37:25;74.70;;;31.37;;
19436;SDS011;9854;50.968;4.168;2023-04-07T04:39:51;73.13;;;31.40;;
19436;SDS011;9854;50.968;4.168;2023-04-07T04:42:17;68.80;;;32.17;;
19436;SDS011;9854;50.968;4.168;2023-04-07T04:44:42;70.50;;;31.70;;
19436;SDS011;9854;50.968;4.168;2023-04-07T04:47:08;75.23;;;32.80;;
19436;SDS011;9854;50.968;4.168;2023-04-07T04:49:34;74.87;;;32.70;;
19436;SDS011;9854;50.968;4.168;2023-04-07T04:52:00;76.83;;;33.73;;
19436;SDS011;9854;50.968;4.168;2023-04-07T04:54:25;71.73;;;32.93;;
19436;SDS011;9854;50.968;4.168;2023-04-07T04:56:51;72.77;;;33.87;;
19436;SDS011;9854;50.968;4.168;2023-04-07T04:59:17;77.80;;;35.20;;
19436;SDS011;9854;50.968;4.168;2023-04-07T05:01:42;72.77;;;33.80;;
19436;SDS011;9854;50.968;4.168;2023-04-07T05:04:08;73.47;;;34.73;;
19436;SDS011;9854;50.968;4.168;2023-04-07T05:06:34;72.00;;;34.67;;
19436;SDS011;9854;50.968;4.168;2023-04-07T05:09:00;73.90;;;36.43;;
19436;SDS011;9854;50.968;4.168;2023-04-07T05:11:25;74.57;;;35.47;;
19436;SDS011;9854;50.968;4.168;2023-04-07T05:13:51;71.57;;;35.43;;
19436;SDS011;9854;50.968;4.168;2023-04-07T05:16:17;78.10;;;37.13;;
19436;SDS011;9854;50.968;4.168;2023-04-07T05:18:42;80.27;;;37.77;;
19436;SDS011;9854;50.968;4.168;2023-04-07T05:21:08;76.67;;;37.90;;
19436;SDS011;9854;50.968;4.168;2023-04-07T05:23:34;79.33;;;38.13;;
19436;SDS011;9854;50.968;4.168;2023-04-07T05:26:00;77.73;;;37.50;;
19436;SDS011;9854;50.968;4.168;2023-04-07T05:28:26;75.70;;;38.37;;
19436;SDS011;9854;50.968;4.168;2023-04-07T05:30:51;77.40;;;36.50;;
19436;SDS011;9854;50.968;4.168;2023-04-07T05:33:18;75.53;;;36.83;;
19436;SDS011;9854;50.968;4.168;2023-04-07T05:35:45;80.97;;;37.07;;
19436;SDS011;9854;50.968;4.168;2023-04-07T05:38:11;79.73;;;39.23;;
19436;SDS011;9854;50.968;4.168;2023-04-07T05:40:38;76.57;;;37.77;;
19436;SDS011;9854;50.968;4.168;2023-04-07T05:43:04;74.43;;;36.90;;
19436;SDS011;9854;50.968;4.168;2023-04-07T05:45:30;75.43;;;37.40;;
19436;SDS011;9854;50.968;4.168;2023-04-07T05:47:55;83.47;;;39.43;;
19436;SDS011;9854;50.968;4.168;2023-04-07T05:50:21;83.90;;;40.07;;
19436;SDS011;9854;50.968;4.168;2023-04-07T05:52:46;86.10;;;40.87;;
19436;SDS011;9854;50.968;4.168;2023-04-07T05:55:12;80.97;;;38.83;;
19436;SDS011;9854;50.968;4.168;2023-04-07T05:57:38;90.37;;;40.97;;
19436;SDS011;9854;50.968;4.168;2023-04-07T06:00:03;77.00;;;39.53;;
19436;SDS011;9854;50.968;4.168;2023-04-07T06:02:29;80.67;;;40.40;;
19436;SDS011;9854;50.968;4.168;2023-04-07T06:04:55;88.23;;;39.27;;
19436;SDS011;9854;50.968;4.168;2023-04-07T06:07:21;88.20;;;41.10;;
19436;SDS011;9854;50.968;4.168;2023-04-07T06:09:46;82.63;;;40.80;;
19436;SDS011;9854;50.968;4.168;2023-04-07T06:12:12;91.60;;;40.67;;
19436;SDS011;9854;50.968;4.168;2023-04-07T06:14:39;81.83;;;38.73;;
19436;SDS011;9854;50.968;4.168;2023-04-07T06:17:04;87.73;;;40.23;;
19436;SDS011;9854;50.968;4.168;2023-04-07T06:19:31;80.77;;;40.13;;
19436;SDS011;9854;50.968;4.168;2023-04-07T06:21:57;82.43;;;39.93;;
19436;SDS011;9854;50.968;4.168;2023-04-07T06:24:22;83.03;;;41.20;;
19436;SDS011;9854;50.968;4.168;2023-04-07T06:26:49;72.57;;;35.57;;
19436;SDS011;9854;50.968;4.168;2023-04-07T06:29:18;74.67;;;38.63;;
19436;SDS011;9854;50.968;4.168;2023-04-07T06:31:44;56.20;;;29.63;;
19436;SDS011;9854;50.968;4.168;2023-04-07T06:34:10;64.20;;;32.47;;
19436;SDS011;9854;50.968;4.168;2023-04-07T06:36:36;44.83;;;26.73;;
19436;SDS011;9854;50.968;4.168;2023-04-07T06:39:02;50.50;;;28.40;;
19436;SDS011;9854;50.968;4.168;2023-04-07T06:41:28;52.43;;;27.27;;
19436;SDS011;9854;50.968;4.168;2023-04-07T06:43:53;48.53;;;26.27;;
19436;SDS011;9854;50.968;4.168;2023-04-07T06:46:19;39.47;;;25.20;;
19436;SDS011;9854;50.968;4.168;2023-04-07T06:48:45;45.43;;;26.93;;
19436;SDS011;9854;50.968;4.168;2023-04-07T06:51:11;45.97;;;25.27;;
19436;SDS011;9854;50.968;4.168;2023-04-07T06:53:37;50.27;;;26.70;;
19436;SDS011;9854;50.968;4.168;2023-04-07T06:56:06;44.30;;;23.80;;
19436;SDS011;9854;50.968;4.168;2023-04-07T06:58:34;38.50;;;22.23;;
19436;SDS011;9854;50.968;4.168;2023-04-07T07:01:00;33.10;;;20.80;;
19436;SDS011;9854;50.968;4.168;2023-04-07T07:03:26;33.60;;;20.53;;
19436;SDS011;9854;50.968;4.168;2023-04-07T07:05:56;33.23;;;20.00;;
19436;SDS011;9854;50.968;4.168;2023-04-07T07:08:25;33.33;;;18.87;;
19436;SDS011;9854;50.968;4.168;2023-04-07T07:10:52;32.33;;;19.10;;
19436;SDS011;9854;50.968;4.168;2023-04-07T07:13:18;27.10;;;17.57;;
19436;SDS011;9854;50.968;4.168;2023-04-07T07:15:47;26.97;;;18.60;;
19436;SDS011;9854;50.968;4.168;2023-04-07T07:18:13;27.07;;;17.23;;
19436;SDS011;9854;50.968;4.168;2023-04-07T07:20:39;28.10;;;15.27;;
19436;SDS011;9854;50.968;4.168;2023-04-07T07:23:04;25.53;;;14.20;;
19436;SDS011;9854;50.968;4.168;2023-04-07T07:25:30;24.53;;;13.10;;
19436;SDS011;9854;50.968;4.168;2023-04-07T07:27:56;16.90;;;10.25;;
19436;SDS011;9854;50.968;4.168;2023-04-07T07:30:22;14.43;;;7.88;;
19436;SDS011;9854;50.968;4.168;2023-04-07T07:32:48;11.20;;;7.30;;
19436;SDS011;9854;50.968;4.168;2023-04-07T07:35:15;10.30;;;7.43;;
19436;SDS011;9854;50.968;4.168;2023-04-07T07:37:40;9.53;;;7.50;;
19436;SDS011;9854;50.968;4.168;2023-04-07T07:40:08;10.60;;;8.17;;
19436;SDS011;9854;50.968;4.168;2023-04-07T07:42:35;12.13;;;8.87;;
19436;SDS011;9854;50.968;4.168;2023-04-07T07:45:00;14.90;;;8.82;;
19436;SDS011;9854;50.968;4.168;2023-04-07T07:47:27;13.50;;;8.03;;
19436;SDS011;9854;50.968;4.168;2023-04-07T07:49:53;11.93;;;7.83;;
19436;SDS011;9854;50.968;4.168;2023-04-07T07:52:18;11.13;;;7.30;;
19436;SDS011;9854;50.968;4.168;2023-04-07T07:54:47;10.93;;;7.30;;
19436;SDS011;9854;50.968;4.168;2023-04-07T07:57:14;14.30;;;6.90;;
19436;SDS011;9854;50.968;4.168;2023-04-07T07:59:40;12.20;;;6.97;;
19436;SDS011;9854;50.968;4.168;2023-04-07T08:02:06;13.32;;;7.13;;
19436;SDS011;9854;50.968;4.168;2023-04-07T08:04:32;13.45;;;6.43;;
19436;SDS011;9854;50.968;4.168;2023-04-07T08:06:59;7.80;;;4.90;;
19436;SDS011;9854;50.968;4.168;2023-04-07T08:09:24;11.10;;;4.60;;
19436;SDS011;9854;50.968;4.168;2023-04-07T08:11:51;5.93;;;4.10;;
19436;SDS011;9854;50.968;4.168;2023-04-07T08:14:16;8.05;;;4.50;;
19436;SDS011;9854;50.968;4.168;2023-04-07T08:16:43;7.07;;;4.18;;
19436;SDS011;9854;50.968;4.168;2023-04-07T08:19:09;9.05;;;4.65;;
19436;SDS011;9854;50.968;4.168;2023-04-07T08:21:37;7.13;;;4.47;;
19436;SDS011;9854;50.968;4.168;2023-04-07T08:24:03;8.80;;;4.30;;
19436;SDS011;9854;50.968;4.168;2023-04-07T08:26:29;7.45;;;4.32;;
19436;SDS011;9854;50.968;4.168;2023-04-07T08:28:55;7.93;;;4.00;;
19436;SDS011;9854;50.968;4.168;2023-04-07T08:31:22;4.90;;;3.83;;
19436;SDS011;9854;50.968;4.168;2023-04-07T08:33:48;6.93;;;3.42;;
19436;SDS011;9854;50.968;4.168;2023-04-07T08:36:18;7.00;;;3.20;;
19436;SDS011;9854;50.968;4.168;2023-04-07T08:38:44;8.40;;;3.20;;
19436;SDS011;9854;50.968;4.168;2023-04-07T08:41:10;4.50;;;2.72;;
19436;SDS011;9854;50.968;4.168;2023-04-07T08:43:37;6.03;;;2.92;;
19436;SDS011;9854;50.968;4.168;2023-04-07T08:46:04;10.40;;;3.03;;
19436;SDS011;9854;50.968;4.168;2023-04-07T08:48:30;4.78;;;2.35;;
19436;SDS011;9854;50.968;4.168;2023-04-07T08:51:03;6.75;;;2.40;;
19436;SDS011;9854;50.968;4.168;2023-04-07T08:53:39;3.40;;;2.65;;
19436;SDS011;9854;50.968;4.168;2023-04-07T08:56:07;8.23;;;2.88;;
19436;SDS011;9854;50.968;4.168;2023-04-07T08:58:35;5.30;;;2.40;;
19436;SDS011;9854;50.968;4.168;2023-04-07T09:01:03;4.65;;;2.38;;
19436;SDS011;9854;50.968;4.168;2023-04-07T09:03:30;7.72;;;2.30;;
19436;SDS011;9854;50.968;4.168;2023-04-07T09:05:58;5.70;;;1.65;;
19436;SDS011;9854;50.968;4.168;2023-04-07T09:08:25;3.92;;;2.00;;
19436;SDS011;9854;50.968;4.168;2023-04-07T09:10:51;6.68;;;1.88;;
19436;SDS011;9854;50.968;4.168;2023-04-07T09:13:17;4.60;;;1.40;;
19436;SDS011;9854;50.968;4.168;2023-04-07T09:15:42;4.03;;;1.48;;
19436;SDS011;9854;50.968;4.168;2023-04-07T09:18:08;6.32;;;1.50;;
19436;SDS011;9854;50.968;4.168;2023-04-07T09:20:57;7.38;;;1.60;;
19436;SDS011;9854;50.968;4.168;2023-04-07T09:23:26;3.75;;;1.60;;
19436;SDS011;9854;50.968;4.168;2023-04-07T09:25:53;6.15;;;1.30;;
19436;SDS011;9854;50.968;4.168;2023-04-07T09:28:19;5.20;;;1.98;;
19436;SDS011;9854;50.968;4.168;2023-04-07T09:30:53;2.35;;;1.20;;
19436;SDS011;9854;50.968;4.168;2023-04-07T09:33:28;7.25;;;1.45;;
19436;SDS011;9854;50.968;4.168;2023-04-07T09:35:54;3.33;;;1.35;;
19436;SDS011;9854;50.968;4.168;2023-04-07T09:38:20;6.15;;;2.80;;
19436;SDS011;9854;50.968;4.168;2023-04-07T09:40:46;8.15;;;3.60;;
19436;SDS011;9854;50.968;4.168;2023-04-07T09:43:14;8.82;;;4.07;;
19436;SDS011;9854;50.968;4.168;2023-04-07T09:45:41;7.60;;;3.55;;
19436;SDS011;9854;50.968;4.168;2023-04-07T09:48:28;7.53;;;3.75;;
19436;SDS011;9854;50.968;4.168;2023-04-07T09:50:53;10.00;;;4.53;;
19436;SDS011;9854;50.968;4.168;2023-04-07T09:53:40;7.85;;;4.00;;
19436;SDS011;9854;50.968;4.168;2023-04-07T09:56:08;7.53;;;4.25;;
19436;SDS011;9854;50.968;4.168;2023-04-07T09:58:36;12.32;;;4.10;;
19436;SDS011;9854;50.968;4.168;2023-04-07T10:01:05;7.50;;;3.65;;
19436;SDS011;9854;50.968;4.168;2023-04-07T10:03:32;8.55;;;3.78;;
19436;SDS011;9854;50.968;4.168;2023-04-07T10:05:59;12.00;;;4.03;;
19436;SDS011;9854;50.968;4.168;2023-04-07T10:08:26;9.38;;;4.10;;
19436;SDS011;9854;50.968;4.168;2023-04-07T10:10:52;11.70;;;4.22;;
19436;SDS011;9854;50.968;4.168;2023-04-07T10:13:19;13.63;;;4.55;;
19436;SDS011;9854;50.968;4.168;2023-04-07T10:15:45;10.93;;;4.45;;
19436;SDS011;9854;50.968;4.168;2023-04-07T10:18:12;9.70;;;4.60;;
19436;SDS011;9854;50.968;4.168;2023-04-07T10:20:39;11.48;;;4.65;;
19436;SDS011;9854;50.968;4.168;2023-04-07T10:23:12;9.07;;;3.85;;
19436;SDS011;9854;50.968;4.168;2023-04-07T10:25:43;9.20;;;3.67;;
19436;SDS011;9854;50.968;4.168;2023-04-07T10:28:11;6.32;;;2.83;;
19436;SDS011;9854;50.968;4.168;2023-04-07T10:30:38;10.57;;;3.08;;
19436;SDS011;9854;50.968;4.168;2023-04-07T10:33:04;8.57;;;3.00;;
19436;SDS011;9854;50.968;4.168;2023-04-07T10:36:01;10.43;;;3.47;;
19436;SDS011;9854;50.968;4.168;2023-04-07T10:38:30;7.47;;;3.13;;
19436;SDS011;9854;50.968;4.168;2023-04-07T10:40:56;9.05;;;3.10;;
19436;SDS011;9854;50.968;4.168;2023-04-07T10:43:38;10.23;;;3.00;;
19436;SDS011;9854;50.968;4.168;2023-04-07T10:46:05;9.82;;;2.78;;
19436;SDS011;9854;50.968;4.168;2023-04-07T10:48:31;9.23;;;3.08;;
19436;SDS011;9854;50.968;4.168;2023-04-07T10:53:29;8.15;;;2.15;;
19436;SDS011;9854;50.968;4.168;2023-04-07T10:55:56;12.82;;;2.30;;
19436;SDS011;9854;50.968;4.168;2023-04-07T10:58:23;9.15;;;2.72;;
19436;SDS011;9854;50.968;4.168;2023-04-07T11:03:24;9.02;;;3.92;;
19436;SDS011;9854;50.968;4.168;2023-04-07T11:05:51;18.85;;;3.75;;
19436;SDS011;9854;50.968;4.168;2023-04-07T11:08:32;8.07;;;3.65;;
19436;SDS011;9854;50.968;4.168;2023-04-07T11:10:59;8.85;;;3.55;;
19436;SDS011;9854;50.968;4.168;2023-04-07T11:13:25;5.88;;;2.47;;
19436;SDS011;9854;50.968;4.168;2023-04-07T11:15:51;8.75;;;2.80;;
19436;SDS011;9854;50.968;4.168;2023-04-07T11:18:21;9.10;;;2.60;;
19436;SDS011;9854;50.968;4.168;2023-04-07T11:20:51;6.50;;;2.85;;
19436;SDS011;9854;50.968;4.168;2023-04-07T11:23:23;4.88;;;2.50;;
19436;SDS011;9854;50.968;4.168;2023-04-07T11:25:53;7.85;;;2.53;;
19436;SDS011;9854;50.968;4.168;2023-04-07T11:28:27;8.80;;;3.33;;
19436;SDS011;9854;50.968;4.168;2023-04-07T11:30:53;6.60;;;3.58;;
19436;SDS011;9854;50.968;4.168;2023-04-07T11:33:24;6.53;;;3.97;;
19436;SDS011;9854;50.968;4.168;2023-04-07T11:36:01;7.18;;;4.20;;
19436;SDS011;9854;50.968;4.168;2023-04-07T11:38:28;10.38;;;4.22;;
19436;SDS011;9854;50.968;4.168;2023-04-07T11:41:08;15.85;;;4.53;;
19436;SDS011;9854;50.968;4.168;2023-04-07T11:43:35;9.38;;;3.55;;
19436;SDS011;9854;50.968;4.168;2023-04-07T11:46:02;7.35;;;3.25;;
19436;SDS011;9854;50.968;4.168;2023-04-07T11:48:30;8.98;;;2.60;;
19436;SDS011;9854;50.968;4.168;2023-04-07T11:50:57;8.73;;;2.80;;
19436;SDS011;9854;50.968;4.168;2023-04-07T11:53:30;5.72;;;2.75;;
19436;SDS011;9854;50.968;4.168;2023-04-07T11:58:28;7.88;;;3.00;;
19436;SDS011;9854;50.968;4.168;2023-04-07T12:00:57;6.28;;;2.85;;
19436;SDS011;9854;50.968;4.168;2023-04-07T12:03:29;9.48;;;3.53;;
19436;SDS011;9854;50.968;4.168;2023-04-07T12:05:55;7.60;;;4.28;;
19436;SDS011;9854;50.968;4.168;2023-04-07T12:08:21;7.75;;;4.55;;
19436;SDS011;9854;50.968;4.168;2023-04-07T12:11:02;8.65;;;3.65;;
19436;SDS011;9854;50.968;4.168;2023-04-07T12:13:29;6.63;;;2.88;;
19436;SDS011;9854;50.968;4.168;2023-04-07T12:15:55;8.30;;;3.20;;
19436;SDS011;9854;50.968;4.168;2023-04-07T12:18:22;8.80;;;3.75;;
19436;SDS011;9854;50.968;4.168;2023-04-07T12:20:49;8.70;;;3.42;;
19436;SDS011;9854;50.968;4.168;2023-04-07T12:23:15;12.95;;;4.65;;
19436;SDS011;9854;50.968;4.168;2023-04-07T12:25:41;10.50;;;4.40;;
19436;SDS011;9854;50.968;4.168;2023-04-07T12:28:06;14.45;;;5.82;;
19436;SDS011;9854;50.968;4.168;2023-04-07T12:30:32;9.98;;;4.30;;
19436;SDS011;9854;50.968;4.168;2023-04-07T12:32:58;13.45;;;4.25;;
19436;SDS011;9854;50.968;4.168;2023-04-07T12:35:23;12.45;;;4.32;;
19436;SDS011;9854;50.968;4.168;2023-04-07T12:37:49;9.00;;;3.90;;
19436;SDS011;9854;50.968;4.168;2023-04-07T12:40:17;6.38;;;3.40;;
19436;SDS011;9854;50.968;4.168;2023-04-07T12:42:42;8.88;;;2.85;;
19436;SDS011;9854;50.968;4.168;2023-04-07T12:45:08;8.10;;;3.03;;
19436;SDS011;9854;50.968;4.168;2023-04-07T12:47:34;9.73;;;2.88;;
19436;SDS011;9854;50.968;4.168;2023-04-07T12:50:00;5.20;;;2.88;;
19436;SDS011;9854;50.968;4.168;2023-04-07T12:52:26;7.90;;;2.72;;
19436;SDS011;9854;50.968;4.168;2023-04-07T12:54:51;7.20;;;2.20;;
19436;SDS011;9854;50.968;4.168;2023-04-07T12:57:17;8.27;;;2.17;;
19436;SDS011;9854;50.968;4.168;2023-04-07T12:59:43;7.78;;;2.40;;
19436;SDS011;9854;50.968;4.168;2023-04-07T13:02:09;10.07;;;2.03;;
19436;SDS011;9854;50.968;4.168;2023-04-07T13:04:37;5.38;;;2.40;;
19436;SDS011;9854;50.968;4.168;2023-04-07T13:07:07;12.48;;;3.28;;
19436;SDS011;9854;50.968;4.168;2023-04-07T13:09:33;8.88;;;2.70;;
19436;SDS011;9854;50.968;4.168;2023-04-07T13:11:59;9.18;;;2.75;;
19436;SDS011;9854;50.968;4.168;2023-04-07T13:14:25;6.20;;;2.55;;
19436;SDS011;9854;50.968;4.168;2023-04-07T13:16:50;10.50;;;3.72;;
19436;SDS011;9854;50.968;4.168;2023-04-07T13:19:16;8.93;;;3.30;;
19436;SDS011;9854;50.968;4.168;2023-04-07T13:21:42;9.45;;;3.50;;
19436;SDS011;9854;50.968;4.168;2023-04-07T13:24:08;9.43;;;2.92;;
19436;SDS011;9854;50.968;4.168;2023-04-07T13:26:33;9.10;;;2.83;;
19436;SDS011;9854;50.968;4.168;2023-04-07T13:28:59;4.93;;;2.53;;
19436;SDS011;9854;50.968;4.168;2023-04-07T13:31:25;9.75;;;3.50;;
19436;SDS011;9854;50.968;4.168;2023-04-07T13:33:52;8.63;;;3.72;;
19436;SDS011;9854;50.968;4.168;2023-04-07T13:36:18;9.82;;;4.95;;
19436;SDS011;9854;50.968;4.168;2023-04-07T13:38:43;11.60;;;4.28;;
19436;SDS011;9854;50.968;4.168;2023-04-07T13:41:09;11.40;;;3.88;;
19436;SDS011;9854;50.968;4.168;2023-04-07T13:43:35;9.60;;;3.33;;
19436;SDS011;9854;50.968;4.168;2023-04-07T13:46:00;7.32;;;2.83;;
19436;SDS011;9854;50.968;4.168;2023-04-07T13:48:26;4.93;;;2.33;;
19436;SDS011;9854;50.968;4.168;2023-04-07T13:50:52;9.63;;;3.05;;
19436;SDS011;9854;50.968;4.168;2023-04-07T13:53:17;6.07;;;2.60;;
19436;SDS011;9854;50.968;4.168;2023-04-07T13:55:43;8.55;;;4.18;;
19436;SDS011;9854;50.968;4.168;2023-04-07T13:58:08;8.18;;;2.63;;
19436;SDS011;9854;50.968;4.168;2023-04-07T14:00:34;7.40;;;3.03;;
19436;SDS011;9854;50.968;4.168;2023-04-07T14:03:02;5.78;;;2.63;;
19436;SDS011;9854;50.968;4.168;2023-04-07T14:05:28;6.47;;;2.20;;
19436;SDS011;9854;50.968;4.168;2023-04-07T14:07:53;4.32;;;2.03;;
19436;SDS011;9854;50.968;4.168;2023-04-07T14:10:19;5.50;;;2.95;;
19436;SDS011;9854;50.968;4.168;2023-04-07T14:12:45;4.35;;;2.05;;
19436;SDS011;9854;50.968;4.168;2023-04-07T14:15:11;6.38;;;2.13;;
19436;SDS011;9854;50.968;4.168;2023-04-07T14:17:36;3.47;;;2.10;;
19436;SDS011;9854;50.968;4.168;2023-04-07T14:20:02;5.65;;;2.60;;
19436;SDS011;9854;50.968;4.168;2023-04-07T14:22:28;5.32;;;2.25;;
19436;SDS011;9854;50.968;4.168;2023-04-07T14:24:54;6.82;;;2.63;;
19436;SDS011;9854;50.968;4.168;2023-04-07T14:27:20;10.18;;;2.55;;
19436;SDS011;9854;50.968;4.168;2023-04-07T14:29:49;8.27;;;2.83;;
19436;SDS011;9854;50.968;4.168;2023-04-07T14:32:15;9.20;;;2.58;;
19436;SDS011;9854;50.968;4.168;2023-04-07T14:34:41;6.68;;;2.65;;
19436;SDS011;9854;50.968;4.168;2023-04-07T14:37:06;6.95;;;2.72;;
19436;SDS011;9854;50.968;4.168;2023-04-07T14:39:32;9.43;;;2.50;;
19436;SDS011;9854;50.968;4.168;2023-04-07T14:41:58;6.82;;;2.05;;
19436;SDS011;9854;50.968;4.168;2023-04-07T14:44:24;5.45;;;2.25;;
19436;SDS011;9854;50.968;4.168;2023-04-07T14:46:51;5.43;;;2.25;;
19436;SDS011;9854;50.968;4.168;2023-04-07T14:49:16;5.95;;;2.50;;
19436;SDS011;9854;50.968;4.168;2023-04-07T14:51:42;9.10;;;2.50;;
19436;SDS011;9854;50.968;4.168;2023-04-07T14:54:08;6.13;;;2.30;;
19436;SDS011;9854;50.968;4.168;2023-04-07T14:56:34;7.40;;;2.08;;
19436;SDS011;9854;50.968;4.168;2023-04-07T14:59:00;3.70;;;1.98;;
19436;SDS011;9854;50.968;4.168;2023-04-07T15:01:25;5.57;;;1.95;;
19436;SDS011;9854;50.968;4.168;2023-04-07T15:03:51;6.35;;;2.20;;